Seattle, Washington
Traffic Map
Current Weather Conditions
Seattle, Washington
Overcast
Overcast
14°
Feels Like: 14°
Wind Chill: 14° Ceiling: 6500
Heat Index: 14° Visibility: 10mi
Dew Point: 11° Wind: 7mph
Humidity: 83% Direction: 130° (SE)
Pressure: 29.81in Gusts: 0mph
Raw Report DataKBFI 210753Z 13006KT 10SM OVC065 14/11 A2981 RMK AO2 SLP094 T01390111 401890128
Traffic Incident Summary
Active as of:
Severity:
Category:
InformationThere was an issue retrieving the traffic information for this location. Please try a different location or try again shortly.
Advertisements
Track Severe Weather on mobile